Monday, June 24, 2019, 5:43 PM MDT
Back to Local

KSLC, Salt Lake City International Airport

Location: Salt Lake City, UT, United States Lat: 40.783
Local Time: 5:43 PM MDT (23:43 GMT) Lon: -111.967
Time Zone: US/Mountain Elev: 4225 ft

Show me the last for .
Show Coded

Time T Td Feel RH Dir Speed Gust Alt SLP Vis Weather Sky Remarks
2019-06-24 16:54 83 42 - 23 20° 14 20 29.90 29.75 10 FEW095 SCT150 None
2019-06-24 15:54 82 43 - 25 Variable 6 - 29.92 29.77 10 FEW095 SCT150 SCT220 None
2019-06-24 14:54 81 42 - 25 330° 8 - 29.93 29.77 10 FEW095 SCT150 SCT220 None
2019-06-24 13:54 80 43 - 26 310° 8 - 29.95 29.80 10 FEW090 SCT150 None
2019-06-24 12:54 79 42 - 26 20° 7 - 29.96 29.81 10 FEW090 SCT150 None
2019-06-24 11:54 77 42 - 28 10° 7 - 29.98 29.83 10 FEW090 SCT150 6-hr Min Temp (12pm): 59.0°F
6-hr Max Temp (12pm): 77.0°F
2019-06-24 10:54 75 40 - 28 300° 5 - 29.99 29.84 10 FEW100 FEW150 None
2019-06-24 09:54 72 40 - 31 160° 5 - 30.00 29.85 10 FEW140 FEW230 None
2019-06-24 08:54 68 41 - 37 150° 8 - 30.00 29.85 10 FEW140 FEW220 None
2019-06-24 07:54 64 40 - 41 130° 9 - 30.00 29.86 10 FEW130 FEW200 None
2019-06-24 07:25 62 39 - 42 140° 9 - 30.00 - 10 FEW130 None
2019-06-24 06:54 60 39 - 45 150° 7 - 30.00 29.86 10 FEW120 FEW200 None
2019-06-24 05:54 60 39 - 45 130° 3 - 29.99 29.85 10 SCT120 6-hr Min Temp (6am): 60.1°F
6-hr Max Temp (6am): 68.0°F
2019-06-24 04:54 62 38 - 40 170° 7 - 29.98 29.85 10 FEW160 None
2019-06-24 03:54 61 39 - 44 170° 6 - 29.97 29.84 10 FEW160 None
2019-06-24 02:54 67 38 - 34 130° 6 - 29.97 29.82 10 FEW120 FEW160 None
2019-06-24 01:54 66 37 - 34 120° 9 - 29.95 29.81 10 SCT120 SCT160 None
2019-06-24 00:54 66 38 - 35 120° 9 - 29.96 29.83 10 FEW160 24-hr Min Temp (1am): 52.0°F
24-hr Max Temp (1am): 80.1°F
2019-06-23 23:54 67 38 - 34 120° 9 - 29.96 29.83 10 FEW160 6-hr Min Temp (12am): 66.9°F
6-hr Max Temp (12am): 79.0°F
2019-06-23 22:54 70 39 - 32 120° 8 - 29.97 29.83 10 FEW160 None
2019-06-23 21:54 72 38 - 28 180° 9 - 29.97 29.83 10 CLR None
2019-06-23 20:54 75 37 - 25 160° 9 - 29.97 29.83 10 FEW170 None
2019-06-23 19:54 77 37 - 23 150° 8 - 29.98 29.85 10 FEW240 None
2019-06-23 18:54 78 36 - 21 240° 5 - 29.99 29.87 10 FEW110 FEW200 SCT250 None
2019-06-23 17:54 78 36 - 21 Variable 6 - 30.01 29.89 10 FEW090 FEW200 SCT250 6-hr Min Temp (6pm): 71.1°F
6-hr Max Temp (6pm): 80.1°F

Support USWX by starting your Amazon purchase here.